sensor_id;sensor_type;location;lat;lon;timestamp;temperature;humidity
17659;DHT22;8948;51.534;8.262;2023-05-10T00:04:34;17.10;72.60
17659;DHT22;8948;51.534;8.262;2023-05-10T00:09:34;17.10;72.80
17659;DHT22;8948;51.534;8.262;2023-05-10T00:14:35;17.10;72.90
17659;DHT22;8948;51.534;8.262;2023-05-10T00:19:35;16.90;73.60
17659;DHT22;8948;51.534;8.262;2023-05-10T00:24:36;16.80;74.10
17659;DHT22;8948;51.534;8.262;2023-05-10T00:34:59;16.20;74.50
17659;DHT22;8948;51.534;8.262;2023-05-10T00:39:59;15.70;74.50
17659;DHT22;8948;51.534;8.262;2023-05-10T00:45:00;15.30;75.60
17659;DHT22;8948;51.534;8.262;2023-05-10T00:50:01;15.20;75.60
17659;DHT22;8948;51.534;8.262;2023-05-10T00:55:02;15.10;75.90
17659;DHT22;8948;51.534;8.262;2023-05-10T01:00:04;15.00;76.40
17659;DHT22;8948;51.534;8.262;2023-05-10T01:05:05;15.00;76.50
17659;DHT22;8948;51.534;8.262;2023-05-10T01:10:06;15.10;76.60
17659;DHT22;8948;51.534;8.262;2023-05-10T01:15:08;15.10;76.20
17659;DHT22;8948;51.534;8.262;2023-05-10T01:20:10;15.20;75.70
17659;DHT22;8948;51.534;8.262;2023-05-10T01:25:37;15.20;75.60
17659;DHT22;8948;51.534;8.262;2023-05-10T01:31:14;15.10;76.00
17659;DHT22;8948;51.534;8.262;2023-05-10T01:36:32;15.10;75.90
17659;DHT22;8948;51.534;8.262;2023-05-10T01:47:12;15.10;76.50
17659;DHT22;8948;51.534;8.262;2023-05-10T01:52:18;15.00;76.50
17659;DHT22;8948;51.534;8.262;2023-05-10T01:57:20;15.00;76.30
17659;DHT22;8948;51.534;8.262;2023-05-10T02:02:23;15.10;76.10
17659;DHT22;8948;51.534;8.262;2023-05-10T02:07:26;15.10;76.20
17659;DHT22;8948;51.534;8.262;2023-05-10T02:12:28;15.00;76.00
17659;DHT22;8948;51.534;8.262;2023-05-10T02:17:32;14.90;76.30
17659;DHT22;8948;51.534;8.262;2023-05-10T02:22:33;14.90;76.30
17659;DHT22;8948;51.534;8.262;2023-05-10T02:27:35;14.80;76.50
17659;DHT22;8948;51.534;8.262;2023-05-10T02:32:37;14.70;77.30
17659;DHT22;8948;51.534;8.262;2023-05-10T02:37:38;14.60;77.50
17659;DHT22;8948;51.534;8.262;2023-05-10T02:42:41;14.60;77.50
17659;DHT22;8948;51.534;8.262;2023-05-10T02:47:43;14.60;77.60
17659;DHT22;8948;51.534;8.262;2023-05-10T02:52:50;14.50;77.50
17659;DHT22;8948;51.534;8.262;2023-05-10T02:58:00;14.60;76.80
17659;DHT22;8948;51.534;8.262;2023-05-10T03:03:01;14.50;77.30
17659;DHT22;8948;51.534;8.262;2023-05-10T03:08:02;14.60;77.10
17659;DHT22;8948;51.534;8.262;2023-05-10T03:13:22;14.60;76.80
17659;DHT22;8948;51.534;8.262;2023-05-10T03:18:54;14.70;76.80
17659;DHT22;8948;51.534;8.262;2023-05-10T03:24:01;15.10;75.00
17659;DHT22;8948;51.534;8.262;2023-05-10T03:29:04;15.20;75.10
17659;DHT22;8948;51.534;8.262;2023-05-10T03:34:05;15.30;74.70
17659;DHT22;8948;51.534;8.262;2023-05-10T03:39:07;15.30;74.70
17659;DHT22;8948;51.534;8.262;2023-05-10T03:44:07;15.30;74.40
17659;DHT22;8948;51.534;8.262;2023-05-10T03:49:08;15.40;74.60
17659;DHT22;8948;51.534;8.262;2023-05-10T03:54:08;15.20;75.40
17659;DHT22;8948;51.534;8.262;2023-05-10T03:59:17;14.80;76.10
17659;DHT22;8948;51.534;8.262;2023-05-10T04:04:17;14.40;77.10
17659;DHT22;8948;51.534;8.262;2023-05-10T04:09:18;14.20;77.10
17659;DHT22;8948;51.534;8.262;2023-05-10T04:14:19;14.20;77.30
17659;DHT22;8948;51.534;8.262;2023-05-10T04:19:19;14.10;77.50
17659;DHT22;8948;51.534;8.262;2023-05-10T04:24:20;14.10;77.70
17659;DHT22;8948;51.534;8.262;2023-05-10T04:29:21;14.00;77.30
17659;DHT22;8948;51.534;8.262;2023-05-10T04:34:22;14.00;77.60
17659;DHT22;8948;51.534;8.262;2023-05-10T04:39:22;14.10;76.80
17659;DHT22;8948;51.534;8.262;2023-05-10T04:44:23;14.10;76.80
17659;DHT22;8948;51.534;8.262;2023-05-10T04:49:23;14.10;77.00
17659;DHT22;8948;51.534;8.262;2023-05-10T04:54:24;14.20;76.30
17659;DHT22;8948;51.534;8.262;2023-05-10T04:59:25;14.00;76.20
17659;DHT22;8948;51.534;8.262;2023-05-10T05:04:26;14.10;76.70
17659;DHT22;8948;51.534;8.262;2023-05-10T05:09:26;14.00;77.00
17659;DHT22;8948;51.534;8.262;2023-05-10T05:14:27;14.00;77.30
17659;DHT22;8948;51.534;8.262;2023-05-10T05:19:27;14.10;76.80
17659;DHT22;8948;51.534;8.262;2023-05-10T05:24:28;14.20;76.70
17659;DHT22;8948;51.534;8.262;2023-05-10T05:29:28;14.10;76.70
17659;DHT22;8948;51.534;8.262;2023-05-10T05:34:29;14.10;77.20
17659;DHT22;8948;51.534;8.262;2023-05-10T05:39:30;14.20;76.90
17659;DHT22;8948;51.534;8.262;2023-05-10T05:44:30;14.20;76.30
17659;DHT22;8948;51.534;8.262;2023-05-10T05:49:31;14.30;76.50
17659;DHT22;8948;51.534;8.262;2023-05-10T05:54:32;14.60;75.50
17659;DHT22;8948;51.534;8.262;2023-05-10T05:59:32;14.60;75.80
17659;DHT22;8948;51.534;8.262;2023-05-10T06:04:33;14.70;75.90
17659;DHT22;8948;51.534;8.262;2023-05-10T06:09:33;14.70;75.60
17659;DHT22;8948;51.534;8.262;2023-05-10T06:14:34;14.80;75.50
17659;DHT22;8948;51.534;8.262;2023-05-10T06:19:35;14.90;75.10
17659;DHT22;8948;51.534;8.262;2023-05-10T06:24:36;15.10;74.90
17659;DHT22;8948;51.534;8.262;2023-05-10T06:29:36;15.20;74.50
17659;DHT22;8948;51.534;8.262;2023-05-10T06:34:37;15.30;74.30
17659;DHT22;8948;51.534;8.262;2023-05-10T06:39:37;15.00;75.30
17659;DHT22;8948;51.534;8.262;2023-05-10T06:44:38;15.10;75.40
17659;DHT22;8948;51.534;8.262;2023-05-10T06:49:38;14.90;76.10
17659;DHT22;8948;51.534;8.262;2023-05-10T06:54:39;15.00;75.70
17659;DHT22;8948;51.534;8.262;2023-05-10T06:59:39;14.90;76.50
17659;DHT22;8948;51.534;8.262;2023-05-10T07:04:40;15.00;76.10
17659;DHT22;8948;51.534;8.262;2023-05-10T07:09:41;15.00;76.50
17659;DHT22;8948;51.534;8.262;2023-05-10T07:14:41;15.00;76.10
17659;DHT22;8948;51.534;8.262;2023-05-10T07:19:42;15.10;75.80
17659;DHT22;8948;51.534;8.262;2023-05-10T07:24:43;15.30;76.00
17659;DHT22;8948;51.534;8.262;2023-05-10T07:29:44;15.40;75.80
17659;DHT22;8948;51.534;8.262;2023-05-10T07:34:45;15.30;75.20
17659;DHT22;8948;51.534;8.262;2023-05-10T07:39:45;15.40;74.80
17659;DHT22;8948;51.534;8.262;2023-05-10T07:44:46;15.60;75.20
17659;DHT22;8948;51.534;8.262;2023-05-10T07:49:47;15.70;74.00
17659;DHT22;8948;51.534;8.262;2023-05-10T07:54:48;16.00;74.10
17659;DHT22;8948;51.534;8.262;2023-05-10T07:59:48;16.00;73.30
17659;DHT22;8948;51.534;8.262;2023-05-10T08:04:49;16.30;72.90
17659;DHT22;8948;51.534;8.262;2023-05-10T08:09:49;16.50;72.20
17659;DHT22;8948;51.534;8.262;2023-05-10T08:14:50;16.50;72.50
17659;DHT22;8948;51.534;8.262;2023-05-10T08:19:51;16.70;71.00
17659;DHT22;8948;51.534;8.262;2023-05-10T08:24:52;16.40;71.20
17659;DHT22;8948;51.534;8.262;2023-05-10T08:29:52;16.40;72.00
17659;DHT22;8948;51.534;8.262;2023-05-10T08:34:53;16.40;72.50
17659;DHT22;8948;51.534;8.262;2023-05-10T08:39:53;16.40;71.90
17659;DHT22;8948;51.534;8.262;2023-05-10T08:44:54;16.60;71.80
17659;DHT22;8948;51.534;8.262;2023-05-10T08:49:56;16.60;71.30
17659;DHT22;8948;51.534;8.262;2023-05-10T08:54:58;16.30;72.10
17659;DHT22;8948;51.534;8.262;2023-05-10T09:00:00;16.40;72.10
17659;DHT22;8948;51.534;8.262;2023-05-10T09:05:01;17.10;71.20
17659;DHT22;8948;51.534;8.262;2023-05-10T09:10:04;17.40;67.70
17659;DHT22;8948;51.534;8.262;2023-05-10T09:15:07;17.80;68.70
17659;DHT22;8948;51.534;8.262;2023-05-10T09:20:07;18.70;63.50
17659;DHT22;8948;51.534;8.262;2023-05-10T09:25:13;19.00;63.90
17659;DHT22;8948;51.534;8.262;2023-05-10T09:30:16;18.70;63.40
17659;DHT22;8948;51.534;8.262;2023-05-10T09:35:20;18.20;63.90
17659;DHT22;8948;51.534;8.262;2023-05-10T09:40:23;18.00;64.80
17659;DHT22;8948;51.534;8.262;2023-05-10T09:45:26;18.90;62.30
17659;DHT22;8948;51.534;8.262;2023-05-10T09:50:27;19.40;60.70
17659;DHT22;8948;51.534;8.262;2023-05-10T09:55:44;19.80;59.90
17659;DHT22;8948;51.534;8.262;2023-05-10T10:00:46;20.30;58.30
17659;DHT22;8948;51.534;8.262;2023-05-10T10:05:48;20.70;56.00
17659;DHT22;8948;51.534;8.262;2023-05-10T10:10:49;20.70;56.20
17659;DHT22;8948;51.534;8.262;2023-05-10T10:15:51;19.60;59.00
17659;DHT22;8948;51.534;8.262;2023-05-10T10:20:54;18.00;65.80
17659;DHT22;8948;51.534;8.262;2023-05-10T10:25:55;17.40;67.30
17659;DHT22;8948;51.534;8.262;2023-05-10T10:30:56;17.60;67.60
17659;DHT22;8948;51.534;8.262;2023-05-10T10:36:03;17.80;67.50
17659;DHT22;8948;51.534;8.262;2023-05-10T10:41:10;18.00;67.30
17659;DHT22;8948;51.534;8.262;2023-05-10T10:46:14;18.10;67.40
17659;DHT22;8948;51.534;8.262;2023-05-10T10:51:17;18.10;65.60
17659;DHT22;8948;51.534;8.262;2023-05-10T10:56:22;18.60;65.50
17659;DHT22;8948;51.534;8.262;2023-05-10T11:01:23;19.00;64.80
17659;DHT22;8948;51.534;8.262;2023-05-10T11:06:34;19.80;62.80
17659;DHT22;8948;51.534;8.262;2023-05-10T11:11:35;20.30;61.50
17659;DHT22;8948;51.534;8.262;2023-05-10T11:16:43;19.80;62.10
17659;DHT22;8948;51.534;8.262;2023-05-10T11:21:46;19.30;62.50
17659;DHT22;8948;51.534;8.262;2023-05-10T11:26:50;18.90;64.80
17659;DHT22;8948;51.534;8.262;2023-05-10T11:31:51;18.60;65.90
17659;DHT22;8948;51.534;8.262;2023-05-10T11:36:53;18.50;66.20
17659;DHT22;8948;51.534;8.262;2023-05-10T11:41:54;18.60;64.90
17659;DHT22;8948;51.534;8.262;2023-05-10T11:46:58;18.70;64.40
17659;DHT22;8948;51.534;8.262;2023-05-10T11:52:06;19.10;65.30
17659;DHT22;8948;51.534;8.262;2023-05-10T11:57:07;19.10;63.60
17659;DHT22;8948;51.534;8.262;2023-05-10T12:02:08;18.80;63.10
17659;DHT22;8948;51.534;8.262;2023-05-10T12:07:08;18.40;63.70
17659;DHT22;8948;51.534;8.262;2023-05-10T12:12:10;18.20;65.20
17659;DHT22;8948;51.534;8.262;2023-05-10T12:17:13;18.30;64.90
17659;DHT22;8948;51.534;8.262;2023-05-10T12:22:14;18.60;64.60
17659;DHT22;8948;51.534;8.262;2023-05-10T12:27:15;19.20;64.10
17659;DHT22;8948;51.534;8.262;2023-05-10T12:32:15;20.10;62.40
17659;DHT22;8948;51.534;8.262;2023-05-10T12:37:16;20.10;60.40
17659;DHT22;8948;51.534;8.262;2023-05-10T12:42:17;19.50;61.00
17659;DHT22;8948;51.534;8.262;2023-05-10T12:47:17;19.10;61.90
17659;DHT22;8948;51.534;8.262;2023-05-10T12:52:18;18.60;64.50
17659;DHT22;8948;51.534;8.262;2023-05-10T12:57:20;18.10;65.20
17659;DHT22;8948;51.534;8.262;2023-05-10T13:02:20;17.60;65.50
17659;DHT22;8948;51.534;8.262;2023-05-10T13:07:23;17.40;66.80
17659;DHT22;8948;51.534;8.262;2023-05-10T13:12:23;17.10;69.30
17659;DHT22;8948;51.534;8.262;2023-05-10T13:17:25;17.20;68.80
17659;DHT22;8948;51.534;8.262;2023-05-10T13:22:26;17.50;69.20
17659;DHT22;8948;51.534;8.262;2023-05-10T13:27:26;17.90;68.30
17659;DHT22;8948;51.534;8.262;2023-05-10T13:32:27;18.10;68.40
17659;DHT22;8948;51.534;8.262;2023-05-10T13:37:28;18.40;68.80
17659;DHT22;8948;51.534;8.262;2023-05-10T13:42:29;18.70;66.20
17659;DHT22;8948;51.534;8.262;2023-05-10T13:47:30;19.00;63.50
17659;DHT22;8948;51.534;8.262;2023-05-10T13:52:31;19.10;64.80
17659;DHT22;8948;51.534;8.262;2023-05-10T13:57:31;19.20;63.60
17659;DHT22;8948;51.534;8.262;2023-05-10T14:02:32;20.00;61.90
17659;DHT22;8948;51.534;8.262;2023-05-10T14:07:33;19.60;61.60
17659;DHT22;8948;51.534;8.262;2023-05-10T14:12:33;19.90;59.70
17659;DHT22;8948;51.534;8.262;2023-05-10T14:17:34;20.00;59.20
17659;DHT22;8948;51.534;8.262;2023-05-10T14:22:34;19.60;60.10
17659;DHT22;8948;51.534;8.262;2023-05-10T14:27:35;19.40;61.30
17659;DHT22;8948;51.534;8.262;2023-05-10T14:32:36;19.60;60.70
17659;DHT22;8948;51.534;8.262;2023-05-10T14:37:37;19.30;59.90
17659;DHT22;8948;51.534;8.262;2023-05-10T14:42:37;19.20;58.60
17659;DHT22;8948;51.534;8.262;2023-05-10T14:47:38;19.60;57.90
17659;DHT22;8948;51.534;8.262;2023-05-10T14:52:39;19.90;57.90
17659;DHT22;8948;51.534;8.262;2023-05-10T14:57:39;19.60;59.30
17659;DHT22;8948;51.534;8.262;2023-05-10T15:02:40;19.30;59.90
17659;DHT22;8948;51.534;8.262;2023-05-10T15:07:40;19.20;60.30
17659;DHT22;8948;51.534;8.262;2023-05-10T15:12:43;19.10;59.60
17659;DHT22;8948;51.534;8.262;2023-05-10T15:17:44;19.00;59.90
17659;DHT22;8948;51.534;8.262;2023-05-10T15:22:45;19.10;59.60
17659;DHT22;8948;51.534;8.262;2023-05-10T15:27:45;19.10;59.30
17659;DHT22;8948;51.534;8.262;2023-05-10T15:32:46;19.40;60.20
17659;DHT22;8948;51.534;8.262;2023-05-10T15:37:47;19.40;59.70
17659;DHT22;8948;51.534;8.262;2023-05-10T15:42:48;19.40;58.40
17659;DHT22;8948;51.534;8.262;2023-05-10T15:47:49;19.60;59.70
17659;DHT22;8948;51.534;8.262;2023-05-10T15:52:50;19.50;59.40
17659;DHT22;8948;51.534;8.262;2023-05-10T15:57:52;19.20;60.60
17659;DHT22;8948;51.534;8.262;2023-05-10T16:02:52;19.10;60.80
17659;DHT22;8948;51.534;8.262;2023-05-10T16:07:53;19.20;59.40
17659;DHT22;8948;51.534;8.262;2023-05-10T16:12:54;19.40;59.50
17659;DHT22;8948;51.534;8.262;2023-05-10T16:17:55;19.60;59.50
17659;DHT22;8948;51.534;8.262;2023-05-10T16:22:55;19.70;59.40
17659;DHT22;8948;51.534;8.262;2023-05-10T16:27:56;19.80;58.90
17659;DHT22;8948;51.534;8.262;2023-05-10T16:32:58;19.80;59.40
17659;DHT22;8948;51.534;8.262;2023-05-10T16:37:59;19.70;59.00
17659;DHT22;8948;51.534;8.262;2023-05-10T16:43:00;19.30;61.10
17659;DHT22;8948;51.534;8.262;2023-05-10T16:48:00;19.20;61.50
17659;DHT22;8948;51.534;8.262;2023-05-10T16:53:01;19.20;62.60
17659;DHT22;8948;51.534;8.262;2023-05-10T16:58:02;19.30;64.90
17659;DHT22;8948;51.534;8.262;2023-05-10T17:03:03;19.00;65.20
17659;DHT22;8948;51.534;8.262;2023-05-10T17:08:03;18.70;65.80
17659;DHT22;8948;51.534;8.262;2023-05-10T17:13:04;18.20;66.90
17659;DHT22;8948;51.534;8.262;2023-05-10T17:18:05;18.20;66.60
17659;DHT22;8948;51.534;8.262;2023-05-10T17:23:06;18.00;67.20
17659;DHT22;8948;51.534;8.262;2023-05-10T17:28:07;17.90;67.60
17659;DHT22;8948;51.534;8.262;2023-05-10T17:33:07;18.00;67.40
17659;DHT22;8948;51.534;8.262;2023-05-10T17:38:08;17.80;68.30
17659;DHT22;8948;51.534;8.262;2023-05-10T17:43:08;17.80;68.80
17659;DHT22;8948;51.534;8.262;2023-05-10T17:48:09;17.80;68.30
17659;DHT22;8948;51.534;8.262;2023-05-10T17:53:10;17.70;69.40
17659;DHT22;8948;51.534;8.262;2023-05-10T17:58:11;17.60;69.80
17659;DHT22;8948;51.534;8.262;2023-05-10T18:03:11;17.60;69.60
17659;DHT22;8948;51.534;8.262;2023-05-10T18:08:13;17.60;69.10
17659;DHT22;8948;51.534;8.262;2023-05-10T18:13:13;17.40;69.80
17659;DHT22;8948;51.534;8.262;2023-05-10T18:18:14;17.40;69.30
17659;DHT22;8948;51.534;8.262;2023-05-10T18:23:14;17.30;69.40
17659;DHT22;8948;51.534;8.262;2023-05-10T18:28:15;17.30;69.00
17659;DHT22;8948;51.534;8.262;2023-05-10T18:33:16;17.10;69.60
17659;DHT22;8948;51.534;8.262;2023-05-10T18:38:16;17.10;69.80
17659;DHT22;8948;51.534;8.262;2023-05-10T18:43:17;17.10;69.50
17659;DHT22;8948;51.534;8.262;2023-05-10T18:48:17;17.00;69.50
17659;DHT22;8948;51.534;8.262;2023-05-10T18:53:18;16.90;70.00
17659;DHT22;8948;51.534;8.262;2023-05-10T18:58:19;16.90;70.20
17659;DHT22;8948;51.534;8.262;2023-05-10T19:03:20;16.90;70.10
17659;DHT22;8948;51.534;8.262;2023-05-10T19:08:21;16.90;69.90
17659;DHT22;8948;51.534;8.262;2023-05-10T19:13:22;16.80;70.00
17659;DHT22;8948;51.534;8.262;2023-05-10T19:18:24;16.70;70.50
17659;DHT22;8948;51.534;8.262;2023-05-10T19:23:24;16.70;70.70
17659;DHT22;8948;51.534;8.262;2023-05-10T19:28:25;16.70;70.90
17659;DHT22;8948;51.534;8.262;2023-05-10T19:33:26;16.70;70.70
17659;DHT22;8948;51.534;8.262;2023-05-10T19:38:27;16.60;71.00
17659;DHT22;8948;51.534;8.262;2023-05-10T19:43:29;16.60;70.20
17659;DHT22;8948;51.534;8.262;2023-05-10T19:48:30;16.60;70.30
17659;DHT22;8948;51.534;8.262;2023-05-10T19:53:31;16.60;70.40
17659;DHT22;8948;51.534;8.262;2023-05-10T19:58:32;16.60;70.50
17659;DHT22;8948;51.534;8.262;2023-05-10T20:03:34;16.60;70.20
17659;DHT22;8948;51.534;8.262;2023-05-10T20:08:34;16.60;70.20
17659;DHT22;8948;51.534;8.262;2023-05-10T20:13:35;16.50;69.30
17659;DHT22;8948;51.534;8.262;2023-05-10T20:18:36;16.30;69.90
17659;DHT22;8948;51.534;8.262;2023-05-10T20:23:37;16.30;70.20
17659;DHT22;8948;51.534;8.262;2023-05-10T20:28:37;16.30;70.00
17659;DHT22;8948;51.534;8.262;2023-05-10T20:33:38;16.20;70.60
17659;DHT22;8948;51.534;8.262;2023-05-10T20:38:39;16.00;70.90
17659;DHT22;8948;51.534;8.262;2023-05-10T20:43:39;15.80;71.30
17659;DHT22;8948;51.534;8.262;2023-05-10T20:48:40;15.70;71.60
17659;DHT22;8948;51.534;8.262;2023-05-10T20:53:41;15.70;72.20
17659;DHT22;8948;51.534;8.262;2023-05-10T20:58:41;15.50;72.30
17659;DHT22;8948;51.534;8.262;2023-05-10T21:03:42;15.40;72.70
17659;DHT22;8948;51.534;8.262;2023-05-10T21:08:42;15.40;72.90
17659;DHT22;8948;51.534;8.262;2023-05-10T21:13:43;15.40;72.60
17659;DHT22;8948;51.534;8.262;2023-05-10T21:18:43;15.40;73.00
17659;DHT22;8948;51.534;8.262;2023-05-10T21:23:47;15.30;73.30
17659;DHT22;8948;51.534;8.262;2023-05-10T21:28:47;15.30;73.20
17659;DHT22;8948;51.534;8.262;2023-05-10T21:33:48;15.30;73.20
17659;DHT22;8948;51.534;8.262;2023-05-10T21:38:48;15.40;72.70
17659;DHT22;8948;51.534;8.262;2023-05-10T21:43:49;15.40;72.70
17659;DHT22;8948;51.534;8.262;2023-05-10T21:48:50;15.40;72.90
17659;DHT22;8948;51.534;8.262;2023-05-10T21:53:50;15.40;73.00
17659;DHT22;8948;51.534;8.262;2023-05-10T21:58:52;15.50;72.80
17659;DHT22;8948;51.534;8.262;2023-05-10T22:03:52;15.70;72.20
17659;DHT22;8948;51.534;8.262;2023-05-10T22:08:53;15.70;72.10
17659;DHT22;8948;51.534;8.262;2023-05-10T22:13:53;15.80;71.90
17659;DHT22;8948;51.534;8.262;2023-05-10T22:18:54;15.70;72.20
17659;DHT22;8948;51.534;8.262;2023-05-10T22:23:54;15.70;72.50
17659;DHT22;8948;51.534;8.262;2023-05-10T22:28:55;15.70;72.40
17659;DHT22;8948;51.534;8.262;2023-05-10T22:33:56;15.60;72.60
17659;DHT22;8948;51.534;8.262;2023-05-10T22:38:56;15.70;72.00
17659;DHT22;8948;51.534;8.262;2023-05-10T22:43:57;15.70;72.00
17659;DHT22;8948;51.534;8.262;2023-05-10T22:48:58;15.80;71.60
17659;DHT22;8948;51.534;8.262;2023-05-10T22:53:58;15.60;72.10
17659;DHT22;8948;51.534;8.262;2023-05-10T22:58:59;15.60;72.10
17659;DHT22;8948;51.534;8.262;2023-05-10T23:03:59;15.60;72.00
17659;DHT22;8948;51.534;8.262;2023-05-10T23:09:00;15.70;72.10
17659;DHT22;8948;51.534;8.262;2023-05-10T23:14:01;15.70;71.70
17659;DHT22;8948;51.534;8.262;2023-05-10T23:19:01;15.70;71.90
17659;DHT22;8948;51.534;8.262;2023-05-10T23:24:02;15.70;71.80
17659;DHT22;8948;51.534;8.262;2023-05-10T23:29:02;15.60;71.80
17659;DHT22;8948;51.534;8.262;2023-05-10T23:34:03;15.50;72.30
17659;DHT22;8948;51.534;8.262;2023-05-10T23:39:04;15.50;72.40
17659;DHT22;8948;51.534;8.262;2023-05-10T23:44:04;15.60;72.40
17659;DHT22;8948;51.534;8.262;2023-05-10T23:49:05;15.60;72.50
17659;DHT22;8948;51.534;8.262;2023-05-10T23:54:06;15.60;72.70
17659;DHT22;8948;51.534;8.262;2023-05-10T23:59:06;15.60;72.70
